sensor_id;sensor_type;location;lat;lon;timestamp;P1;durP1;ratioP1;P2;durP2;ratioP2
42866;SDS011;39461;40.948;73.006;2022-12-19T00:02:12;31.45;;;15.80;;
42866;SDS011;39461;40.948;73.006;2022-12-19T00:04:46;37.58;;;23.73;;
42866;SDS011;39461;40.948;73.006;2022-12-19T00:07:19;25.67;;;13.07;;
42866;SDS011;39461;40.948;73.006;2022-12-19T00:09:53;25.70;;;13.45;;
42866;SDS011;39461;40.948;73.006;2022-12-19T00:12:26;25.83;;;10.93;;
42866;SDS011;39461;40.948;73.006;2022-12-19T00:14:59;22.58;;;11.07;;
42866;SDS011;39461;40.948;73.006;2022-12-19T00:17:38;23.50;;;12.05;;
42866;SDS011;39461;40.948;73.006;2022-12-19T00:20:12;24.92;;;13.55;;
42866;SDS011;39461;40.948;73.006;2022-12-19T00:22:45;25.17;;;11.80;;
42866;SDS011;39461;40.948;73.006;2022-12-19T00:25:20;31.33;;;16.27;;
42866;SDS011;39461;40.948;73.006;2022-12-19T00:27:54;37.30;;;19.08;;
42866;SDS011;39461;40.948;73.006;2022-12-19T00:30:27;43.35;;;21.13;;
42866;SDS011;39461;40.948;73.006;2022-12-19T00:33:00;43.17;;;21.45;;
42866;SDS011;39461;40.948;73.006;2022-12-19T00:35:35;43.03;;;21.67;;
42866;SDS011;39461;40.948;73.006;2022-12-19T00:38:10;41.60;;;23.88;;
42866;SDS011;39461;40.948;73.006;2022-12-19T00:40:44;50.13;;;27.10;;
42866;SDS011;39461;40.948;73.006;2022-12-19T00:43:17;44.53;;;25.50;;
42866;SDS011;39461;40.948;73.006;2022-12-19T00:45:52;55.15;;;27.85;;
42866;SDS011;39461;40.948;73.006;2022-12-19T00:48:27;55.03;;;29.58;;
42866;SDS011;39461;40.948;73.006;2022-12-19T00:51:13;45.40;;;26.55;;
42866;SDS011;39461;40.948;73.006;2022-12-19T00:53:52;53.95;;;29.85;;
42866;SDS011;39461;40.948;73.006;2022-12-19T00:56:26;76.95;;;35.63;;
42866;SDS011;39461;40.948;73.006;2022-12-19T00:58:54;75.50;;;37.00;;
42866;SDS011;39461;40.948;73.006;2022-12-19T01:01:28;69.53;;;35.42;;
42866;SDS011;39461;40.948;73.006;2022-12-19T01:04:05;55.22;;;29.30;;
42866;SDS011;39461;40.948;73.006;2022-12-19T01:06:39;71.97;;;34.80;;
42866;SDS011;39461;40.948;73.006;2022-12-19T01:09:19;64.47;;;33.17;;
42866;SDS011;39461;40.948;73.006;2022-12-19T01:11:55;66.70;;;34.70;;
42866;SDS011;39461;40.948;73.006;2022-12-19T01:14:47;64.32;;;36.90;;
42866;SDS011;39461;40.948;73.006;2022-12-19T01:17:20;59.25;;;34.63;;
42866;SDS011;39461;40.948;73.006;2022-12-19T01:19:53;40.45;;;23.98;;
42866;SDS011;39461;40.948;73.006;2022-12-19T01:22:26;40.67;;;22.25;;
42866;SDS011;39461;40.948;73.006;2022-12-19T01:24:59;31.95;;;18.73;;
42866;SDS011;39461;40.948;73.006;2022-12-19T01:27:38;34.80;;;17.65;;
42866;SDS011;39461;40.948;73.006;2022-12-19T01:30:12;31.83;;;17.05;;
42866;SDS011;39461;40.948;73.006;2022-12-19T01:32:49;49.78;;;23.38;;
42866;SDS011;39461;40.948;73.006;2022-12-19T01:35:32;67.50;;;31.25;;
42866;SDS011;39461;40.948;73.006;2022-12-19T01:38:16;79.15;;;41.35;;
42866;SDS011;39461;40.948;73.006;2022-12-19T01:40:54;83.28;;;42.85;;
42866;SDS011;39461;40.948;73.006;2022-12-19T01:43:30;121.93;;;68.35;;
42866;SDS011;39461;40.948;73.006;2022-12-19T01:46:11;106.30;;;57.30;;
42866;SDS011;39461;40.948;73.006;2022-12-19T01:48:46;90.18;;;46.85;;
42866;SDS011;39461;40.948;73.006;2022-12-19T01:51:25;103.13;;;51.35;;
42866;SDS011;39461;40.948;73.006;2022-12-19T01:54:03;114.18;;;52.83;;
42866;SDS011;39461;40.948;73.006;2022-12-19T01:56:45;124.78;;;58.80;;
42866;SDS011;39461;40.948;73.006;2022-12-19T01:59:21;127.15;;;58.55;;
42866;SDS011;39461;40.948;73.006;2022-12-19T02:02:08;143.75;;;61.95;;
42866;SDS011;39461;40.948;73.006;2022-12-19T02:04:43;148.95;;;66.80;;
42866;SDS011;39461;40.948;73.006;2022-12-19T02:07:17;195.25;;;79.82;;
42866;SDS011;39461;40.948;73.006;2022-12-19T02:09:55;202.23;;;86.53;;
42866;SDS011;39461;40.948;73.006;2022-12-19T02:12:32;191.10;;;82.57;;
42866;SDS011;39461;40.948;73.006;2022-12-19T02:15:08;191.30;;;83.00;;
42866;SDS011;39461;40.948;73.006;2022-12-19T02:18:00;135.50;;;62.28;;
42866;SDS011;39461;40.948;73.006;2022-12-19T02:24:13;94.90;;;51.03;;
42866;SDS011;39461;40.948;73.006;2022-12-19T02:37:07;61.40;;;29.35;;
42866;SDS011;39461;40.948;73.006;2022-12-19T02:39:42;61.85;;;27.77;;
42866;SDS011;39461;40.948;73.006;2022-12-19T02:42:39;78.18;;;39.25;;
42866;SDS011;39461;40.948;73.006;2022-12-19T02:45:12;124.18;;;60.42;;
42866;SDS011;39461;40.948;73.006;2022-12-19T02:47:46;203.13;;;82.88;;
42866;SDS011;39461;40.948;73.006;2022-12-19T02:50:13;250.35;;;112.40;;
42866;SDS011;39461;40.948;73.006;2022-12-19T02:52:46;298.17;;;151.80;;
42866;SDS011;39461;40.948;73.006;2022-12-19T02:55:23;258.02;;;144.20;;
42866;SDS011;39461;40.948;73.006;2022-12-19T03:00:39;204.65;;;92.35;;
42866;SDS011;39461;40.948;73.006;2022-12-19T03:03:20;207.75;;;96.43;;
42866;SDS011;39461;40.948;73.006;2022-12-19T03:11:55;273.33;;;143.20;;
42866;SDS011;39461;40.948;73.006;2022-12-19T03:14:31;284.33;;;150.43;;
42866;SDS011;39461;40.948;73.006;2022-12-19T03:17:08;292.60;;;157.43;;
42866;SDS011;39461;40.948;73.006;2022-12-19T03:47:16;134.70;;;77.90;;
42866;SDS011;39461;40.948;73.006;2022-12-19T03:49:53;122.03;;;70.43;;
42866;SDS011;39461;40.948;73.006;2022-12-19T03:52:28;133.27;;;69.85;;
42866;SDS011;39461;40.948;73.006;2022-12-19T04:00:16;134.50;;;73.13;;
42866;SDS011;39461;40.948;73.006;2022-12-19T04:02:51;116.20;;;64.80;;
42866;SDS011;39461;40.948;73.006;2022-12-19T04:05:25;115.75;;;61.63;;
42866;SDS011;39461;40.948;73.006;2022-12-19T04:08:04;108.47;;;60.35;;
42866;SDS011;39461;40.948;73.006;2022-12-19T04:10:35;99.93;;;57.03;;
42866;SDS011;39461;40.948;73.006;2022-12-19T04:13:13;112.15;;;63.78;;
42866;SDS011;39461;40.948;73.006;2022-12-19T04:15:50;117.88;;;67.20;;
42866;SDS011;39461;40.948;73.006;2022-12-19T04:18:28;142.15;;;73.25;;
42866;SDS011;39461;40.948;73.006;2022-12-19T04:21:05;125.45;;;65.38;;
42866;SDS011;39461;40.948;73.006;2022-12-19T04:38:43;124.93;;;67.50;;
42866;SDS011;39461;40.948;73.006;2022-12-19T04:41:18;124.18;;;67.85;;
42866;SDS011;39461;40.948;73.006;2022-12-19T04:43:52;124.50;;;64.55;;
42866;SDS011;39461;40.948;73.006;2022-12-19T04:46:29;137.68;;;73.18;;
42866;SDS011;39461;40.948;73.006;2022-12-19T04:49:02;130.70;;;68.90;;
42866;SDS011;39461;40.948;73.006;2022-12-19T04:51:35;113.28;;;64.13;;
42866;SDS011;39461;40.948;73.006;2022-12-19T04:54:08;117.32;;;62.50;;
42866;SDS011;39461;40.948;73.006;2022-12-19T04:56:37;113.50;;;62.42;;
42866;SDS011;39461;40.948;73.006;2022-12-19T04:59:10;117.90;;;64.88;;
42866;SDS011;39461;40.948;73.006;2022-12-19T05:01:46;108.32;;;62.50;;
42866;SDS011;39461;40.948;73.006;2022-12-19T05:04:21;109.43;;;60.53;;
42866;SDS011;39461;40.948;73.006;2022-12-19T05:06:56;103.78;;;57.58;;
42866;SDS011;39461;40.948;73.006;2022-12-19T05:09:29;105.82;;;58.50;;
42866;SDS011;39461;40.948;73.006;2022-12-19T05:12:05;98.97;;;55.97;;
42866;SDS011;39461;40.948;73.006;2022-12-19T05:14:38;101.65;;;55.88;;
42866;SDS011;39461;40.948;73.006;2022-12-19T05:17:13;87.20;;;47.53;;
42866;SDS011;39461;40.948;73.006;2022-12-19T05:19:46;88.10;;;51.38;;
42866;SDS011;39461;40.948;73.006;2022-12-19T05:22:19;92.85;;;52.47;;
42866;SDS011;39461;40.948;73.006;2022-12-19T05:24:54;90.57;;;50.08;;
42866;SDS011;39461;40.948;73.006;2022-12-19T05:27:27;88.47;;;48.65;;
42866;SDS011;39461;40.948;73.006;2022-12-19T05:30:02;88.85;;;48.03;;
42866;SDS011;39461;40.948;73.006;2022-12-19T05:32:42;83.10;;;48.13;;
42866;SDS011;39461;40.948;73.006;2022-12-19T05:35:15;91.07;;;45.58;;
42866;SDS011;39461;40.948;73.006;2022-12-19T05:37:50;95.15;;;57.60;;
42866;SDS011;39461;40.948;73.006;2022-12-19T05:40:30;60.45;;;35.13;;
42866;SDS011;39461;40.948;73.006;2022-12-19T05:43:03;59.00;;;35.95;;
42866;SDS011;39461;40.948;73.006;2022-12-19T05:45:39;64.63;;;36.42;;
42866;SDS011;39461;40.948;73.006;2022-12-19T05:48:16;54.17;;;33.30;;
42866;SDS011;39461;40.948;73.006;2022-12-19T06:03:45;32.28;;;17.52;;
42866;SDS011;39461;40.948;73.006;2022-12-19T06:19:01;40.50;;;21.52;;
42866;SDS011;39461;40.948;73.006;2022-12-19T06:21:36;42.08;;;20.83;;
42866;SDS011;39461;40.948;73.006;2022-12-19T06:24:11;34.47;;;17.58;;
42866;SDS011;39461;40.948;73.006;2022-12-19T06:29:43;26.20;;;15.52;;
42866;SDS011;39461;40.948;73.006;2022-12-19T06:35:16;26.85;;;14.00;;
42866;SDS011;39461;40.948;73.006;2022-12-19T06:37:50;23.65;;;12.70;;
42866;SDS011;39461;40.948;73.006;2022-12-19T06:40:25;25.35;;;13.55;;
42866;SDS011;39461;40.948;73.006;2022-12-19T06:43:17;28.80;;;12.75;;
42866;SDS011;39461;40.948;73.006;2022-12-19T06:45:55;27.77;;;14.95;;
42866;SDS011;39461;40.948;73.006;2022-12-19T06:48:30;26.63;;;11.38;;
42866;SDS011;39461;40.948;73.006;2022-12-19T06:54:04;24.35;;;12.68;;
42866;SDS011;39461;40.948;73.006;2022-12-19T06:56:40;25.55;;;12.30;;
42866;SDS011;39461;40.948;73.006;2022-12-19T06:59:12;15.93;;;9.98;;
42866;SDS011;39461;40.948;73.006;2022-12-19T07:04:42;22.38;;;12.05;;
42866;SDS011;39461;40.948;73.006;2022-12-19T07:07:16;20.23;;;10.15;;
42866;SDS011;39461;40.948;73.006;2022-12-19T07:09:52;21.90;;;10.48;;
42866;SDS011;39461;40.948;73.006;2022-12-19T07:12:27;17.90;;;10.10;;
42866;SDS011;39461;40.948;73.006;2022-12-19T07:15:00;15.57;;;9.60;;
42866;SDS011;39461;40.948;73.006;2022-12-19T07:17:35;14.25;;;8.75;;
42866;SDS011;39461;40.948;73.006;2022-12-19T07:20:11;41.17;;;24.27;;
42866;SDS011;39461;40.948;73.006;2022-12-19T07:22:47;40.75;;;28.80;;
42866;SDS011;39461;40.948;73.006;2022-12-19T07:25:23;27.83;;;18.75;;
42866;SDS011;39461;40.948;73.006;2022-12-19T07:27:56;15.77;;;9.30;;
42866;SDS011;39461;40.948;73.006;2022-12-19T07:30:33;23.58;;;8.10;;
42866;SDS011;39461;40.948;73.006;2022-12-19T07:33:07;16.45;;;8.85;;
42866;SDS011;39461;40.948;73.006;2022-12-19T07:35:40;16.30;;;9.45;;
42866;SDS011;39461;40.948;73.006;2022-12-19T07:38:14;16.80;;;9.98;;
42866;SDS011;39461;40.948;73.006;2022-12-19T07:40:49;16.63;;;9.13;;
42866;SDS011;39461;40.948;73.006;2022-12-19T07:43:24;19.13;;;10.00;;
42866;SDS011;39461;40.948;73.006;2022-12-19T07:45:58;21.00;;;9.65;;
42866;SDS011;39461;40.948;73.006;2022-12-19T07:48:37;15.52;;;9.80;;
42866;SDS011;39461;40.948;73.006;2022-12-19T07:51:13;18.33;;;10.48;;
42866;SDS011;39461;40.948;73.006;2022-12-19T07:53:46;16.27;;;9.68;;
42866;SDS011;39461;40.948;73.006;2022-12-19T07:56:21;28.98;;;14.95;;
42866;SDS011;39461;40.948;73.006;2022-12-19T07:58:54;31.88;;;19.58;;
42866;SDS011;39461;40.948;73.006;2022-12-19T08:01:30;28.60;;;18.25;;
42866;SDS011;39461;40.948;73.006;2022-12-19T08:04:05;30.52;;;18.70;;
42866;SDS011;39461;40.948;73.006;2022-12-19T08:06:39;27.65;;;13.48;;
42866;SDS011;39461;40.948;73.006;2022-12-19T08:09:15;33.75;;;14.45;;
42866;SDS011;39461;40.948;73.006;2022-12-19T08:11:52;44.25;;;22.20;;
42866;SDS011;39461;40.948;73.006;2022-12-19T08:14:26;32.25;;;16.48;;
42866;SDS011;39461;40.948;73.006;2022-12-19T08:19:59;96.50;;;31.33;;
42866;SDS011;39461;40.948;73.006;2022-12-19T08:22:37;58.92;;;25.65;;
42866;SDS011;39461;40.948;73.006;2022-12-19T08:25:13;45.28;;;24.75;;
42866;SDS011;39461;40.948;73.006;2022-12-19T08:27:46;47.33;;;26.85;;
42866;SDS011;39461;40.948;73.006;2022-12-19T08:30:19;41.47;;;23.85;;
42866;SDS011;39461;40.948;73.006;2022-12-19T08:32:54;45.15;;;23.98;;
42866;SDS011;39461;40.948;73.006;2022-12-19T08:35:30;49.55;;;24.13;;
42866;SDS011;39461;40.948;73.006;2022-12-19T08:38:03;51.05;;;28.52;;
42866;SDS011;39461;40.948;73.006;2022-12-19T08:40:37;52.17;;;28.65;;
42866;SDS011;39461;40.948;73.006;2022-12-19T08:43:10;51.72;;;30.25;;
42866;SDS011;39461;40.948;73.006;2022-12-19T08:45:48;72.43;;;39.83;;
42866;SDS011;39461;40.948;73.006;2022-12-19T08:48:21;63.03;;;38.85;;
42866;SDS011;39461;40.948;73.006;2022-12-19T08:50:58;58.97;;;35.20;;
42866;SDS011;39461;40.948;73.006;2022-12-19T08:53:36;64.45;;;39.00;;
42866;SDS011;39461;40.948;73.006;2022-12-19T08:56:18;91.85;;;50.47;;
42866;SDS011;39461;40.948;73.006;2022-12-19T08:58:45;101.38;;;57.17;;
42866;SDS011;39461;40.948;73.006;2022-12-19T09:01:17;94.35;;;57.20;;
42866;SDS011;39461;40.948;73.006;2022-12-19T09:03:57;94.60;;;56.65;;
42866;SDS011;39461;40.948;73.006;2022-12-19T09:06:33;102.95;;;60.67;;
42866;SDS011;39461;40.948;73.006;2022-12-19T09:09:12;107.35;;;61.03;;
42866;SDS011;39461;40.948;73.006;2022-12-19T09:11:49;88.32;;;50.42;;
42866;SDS011;39461;40.948;73.006;2022-12-19T09:14:22;93.13;;;55.67;;
42866;SDS011;39461;40.948;73.006;2022-12-19T09:16:57;124.57;;;82.90;;
42866;SDS011;39461;40.948;73.006;2022-12-19T09:19:31;119.65;;;78.95;;
42866;SDS011;39461;40.948;73.006;2022-12-19T09:22:08;307.05;;;208.65;;
42866;SDS011;39461;40.948;73.006;2022-12-19T09:24:45;78.13;;;50.45;;
42866;SDS011;39461;40.948;73.006;2022-12-19T09:27:22;71.82;;;46.15;;
42866;SDS011;39461;40.948;73.006;2022-12-19T09:30:02;73.90;;;43.05;;
42866;SDS011;39461;40.948;73.006;2022-12-19T09:32:37;75.15;;;44.20;;
42866;SDS011;39461;40.948;73.006;2022-12-19T09:35:14;73.53;;;43.90;;
42866;SDS011;39461;40.948;73.006;2022-12-19T09:37:48;66.40;;;42.58;;
42866;SDS011;39461;40.948;73.006;2022-12-19T09:40:29;67.03;;;43.58;;
42866;SDS011;39461;40.948;73.006;2022-12-19T09:43:21;69.18;;;42.65;;
42866;SDS011;39461;40.948;73.006;2022-12-19T09:46:35;75.13;;;44.22;;
42866;SDS011;39461;40.948;73.006;2022-12-19T09:49:08;69.32;;;44.10;;
42866;SDS011;39461;40.948;73.006;2022-12-19T09:51:58;79.50;;;46.72;;
42866;SDS011;39461;40.948;73.006;2022-12-19T09:54:35;75.35;;;45.40;;
42866;SDS011;39461;40.948;73.006;2022-12-19T09:57:19;72.13;;;43.03;;
42866;SDS011;39461;40.948;73.006;2022-12-19T09:59:53;75.93;;;44.80;;
42866;SDS011;39461;40.948;73.006;2022-12-19T10:02:35;72.10;;;43.58;;
42866;SDS011;39461;40.948;73.006;2022-12-19T10:07:44;76.93;;;42.70;;
42866;SDS011;39461;40.948;73.006;2022-12-19T10:10:33;76.40;;;43.97;;
42866;SDS011;39461;40.948;73.006;2022-12-19T10:18:53;86.22;;;51.40;;
42866;SDS011;39461;40.948;73.006;2022-12-19T10:34:52;90.88;;;51.95;;
42866;SDS011;39461;40.948;73.006;2022-12-19T10:37:29;97.97;;;58.40;;
42866;SDS011;39461;40.948;73.006;2022-12-19T10:40:10;97.72;;;54.97;;
42866;SDS011;39461;40.948;73.006;2022-12-19T10:45:22;85.75;;;52.65;;
42866;SDS011;39461;40.948;73.006;2022-12-19T10:47:56;85.63;;;49.10;;
42866;SDS011;39461;40.948;73.006;2022-12-19T10:50:33;131.13;;;74.15;;
42866;SDS011;39461;40.948;73.006;2022-12-19T10:53:12;130.07;;;70.68;;
42866;SDS011;39461;40.948;73.006;2022-12-19T10:55:47;137.57;;;75.68;;
42866;SDS011;39461;40.948;73.006;2022-12-19T10:58:24;142.65;;;80.32;;
42866;SDS011;39461;40.948;73.006;2022-12-19T11:03:31;127.60;;;69.78;;
42866;SDS011;39461;40.948;73.006;2022-12-19T11:09:16;116.15;;;64.88;;
42866;SDS011;39461;40.948;73.006;2022-12-19T11:14:50;124.75;;;73.85;;
42866;SDS011;39461;40.948;73.006;2022-12-19T11:20:28;176.73;;;94.88;;
42866;SDS011;39461;40.948;73.006;2022-12-19T11:23:01;175.00;;;93.85;;
42866;SDS011;39461;40.948;73.006;2022-12-19T11:25:39;175.80;;;96.93;;
42866;SDS011;39461;40.948;73.006;2022-12-19T11:28:31;174.15;;;96.60;;
42866;SDS011;39461;40.948;73.006;2022-12-19T11:34:04;177.90;;;100.35;;
42866;SDS011;39461;40.948;73.006;2022-12-19T11:36:43;188.02;;;102.40;;
42866;SDS011;39461;40.948;73.006;2022-12-19T11:39:22;215.85;;;116.45;;
42866;SDS011;39461;40.948;73.006;2022-12-19T11:42:20;244.38;;;126.07;;
42866;SDS011;39461;40.948;73.006;2022-12-19T11:45:05;219.80;;;113.90;;
42866;SDS011;39461;40.948;73.006;2022-12-19T11:55:29;238.48;;;127.90;;
42866;SDS011;39461;40.948;73.006;2022-12-19T11:58:11;246.52;;;129.82;;
42866;SDS011;39461;40.948;73.006;2022-12-19T12:00:53;229.40;;;123.50;;
42866;SDS011;39461;40.948;73.006;2022-12-19T12:06:17;234.70;;;122.68;;
42866;SDS011;39461;40.948;73.006;2022-12-19T12:08:57;230.95;;;121.75;;
42866;SDS011;39461;40.948;73.006;2022-12-19T12:14:15;248.40;;;123.53;;
42866;SDS011;39461;40.948;73.006;2022-12-19T12:30:59;404.35;;;189.80;;
42866;SDS011;39461;40.948;73.006;2022-12-19T12:36:15;484.98;;;234.57;;
42866;SDS011;39461;40.948;73.006;2022-12-19T12:44:39;554.33;;;314.00;;
42866;SDS011;39461;40.948;73.006;2022-12-19T12:49:57;621.13;;;366.20;;
42866;SDS011;39461;40.948;73.006;2022-12-19T12:52:35;612.63;;;355.20;;
42866;SDS011;39461;40.948;73.006;2022-12-19T12:55:53;590.88;;;357.80;;
42866;SDS011;39461;40.948;73.006;2022-12-19T13:03:54;618.47;;;377.67;;
42866;SDS011;39461;40.948;73.006;2022-12-19T13:06:37;585.00;;;352.05;;
42866;SDS011;39461;40.948;73.006;2022-12-19T13:12:09;595.15;;;371.40;;
42866;SDS011;39461;40.948;73.006;2022-12-19T13:15:42;627.08;;;397.73;;
42866;SDS011;39461;40.948;73.006;2022-12-19T13:18:13;596.15;;;377.95;;
42866;SDS011;39461;40.948;73.006;2022-12-19T13:20:55;606.50;;;377.88;;
42866;SDS011;39461;40.948;73.006;2022-12-19T13:26:22;638.72;;;396.77;;
42866;SDS011;39461;40.948;73.006;2022-12-19T13:29:23;623.75;;;378.35;;
42866;SDS011;39461;40.948;73.006;2022-12-19T13:32:14;622.33;;;387.58;;
42866;SDS011;39461;40.948;73.006;2022-12-19T13:34:50;568.22;;;342.65;;
42866;SDS011;39461;40.948;73.006;2022-12-19T13:37:42;559.05;;;349.10;;
42866;SDS011;39461;40.948;73.006;2022-12-19T13:43:17;555.08;;;335.00;;
42866;SDS011;39461;40.948;73.006;2022-12-19T13:48:55;517.33;;;275.77;;
42866;SDS011;39461;40.948;73.006;2022-12-19T13:51:41;455.05;;;249.60;;
42866;SDS011;39461;40.948;73.006;2022-12-19T13:54:20;443.35;;;232.70;;
42866;SDS011;39461;40.948;73.006;2022-12-19T13:56:59;358.73;;;206.27;;
42866;SDS011;39461;40.948;73.006;2022-12-19T13:59:35;393.38;;;217.38;;
42866;SDS011;39461;40.948;73.006;2022-12-19T14:02:14;375.73;;;209.10;;
42866;SDS011;39461;40.948;73.006;2022-12-19T14:04:49;372.80;;;205.65;;
42866;SDS011;39461;40.948;73.006;2022-12-19T14:10:02;380.10;;;212.57;;
42866;SDS011;39461;40.948;73.006;2022-12-19T14:12:41;413.85;;;222.98;;
42866;SDS011;39461;40.948;73.006;2022-12-19T14:15:38;360.23;;;202.70;;
42866;SDS011;39461;40.948;73.006;2022-12-19T14:20:50;348.55;;;203.43;;
42866;SDS011;39461;40.948;73.006;2022-12-19T14:23:28;382.15;;;210.13;;
42866;SDS011;39461;40.948;73.006;2022-12-19T14:26:04;396.23;;;221.35;;
42866;SDS011;39461;40.948;73.006;2022-12-19T14:46:27;355.98;;;200.10;;
42866;SDS011;39461;40.948;73.006;2022-12-19T14:49:19;347.13;;;196.32;;
42866;SDS011;39461;40.948;73.006;2022-12-19T14:52:02;318.48;;;177.60;;
42866;SDS011;39461;40.948;73.006;2022-12-19T14:54:37;305.17;;;168.68;;
42866;SDS011;39461;40.948;73.006;2022-12-19T14:57:04;311.05;;;166.65;;
42866;SDS011;39461;40.948;73.006;2022-12-19T15:05:18;307.17;;;163.68;;
42866;SDS011;39461;40.948;73.006;2022-12-19T15:07:56;269.85;;;151.52;;
42866;SDS011;39461;40.948;73.006;2022-12-19T15:10:36;273.00;;;144.95;;
42866;SDS011;39461;40.948;73.006;2022-12-19T15:15:53;267.38;;;144.10;;
42866;SDS011;39461;40.948;73.006;2022-12-19T15:24:08;229.15;;;126.20;;
42866;SDS011;39461;40.948;73.006;2022-12-19T15:26:51;238.65;;;124.30;;
42866;SDS011;39461;40.948;73.006;2022-12-19T15:29:25;254.02;;;127.57;;
42866;SDS011;39461;40.948;73.006;2022-12-19T15:32:01;230.23;;;123.50;;
42866;SDS011;39461;40.948;73.006;2022-12-19T15:34:39;247.25;;;130.32;;
42866;SDS011;39461;40.948;73.006;2022-12-19T15:37:21;240.50;;;122.60;;
42866;SDS011;39461;40.948;73.006;2022-12-19T15:39:57;235.05;;;123.88;;
42866;SDS011;39461;40.948;73.006;2022-12-19T15:42:39;223.07;;;115.38;;
42866;SDS011;39461;40.948;73.006;2022-12-19T15:45:15;198.60;;;107.07;;
42866;SDS011;39461;40.948;73.006;2022-12-19T15:48:13;214.20;;;110.07;;
42866;SDS011;39461;40.948;73.006;2022-12-19T15:50:56;239.15;;;124.45;;
42866;SDS011;39461;40.948;73.006;2022-12-19T15:53:33;243.18;;;131.35;;
42866;SDS011;39461;40.948;73.006;2022-12-19T15:58:53;253.05;;;133.60;;
42866;SDS011;39461;40.948;73.006;2022-12-19T16:01:29;250.18;;;133.32;;
42866;SDS011;39461;40.948;73.006;2022-12-19T16:10:08;214.45;;;115.65;;
42866;SDS011;39461;40.948;73.006;2022-12-19T16:12:54;209.45;;;114.90;;
42866;SDS011;39461;40.948;73.006;2022-12-19T16:15:29;229.93;;;122.07;;
42866;SDS011;39461;40.948;73.006;2022-12-19T16:18:05;221.27;;;124.20;;
42866;SDS011;39461;40.948;73.006;2022-12-19T16:23:41;241.13;;;121.68;;
42866;SDS011;39461;40.948;73.006;2022-12-19T16:26:25;241.43;;;127.03;;
42866;SDS011;39461;40.948;73.006;2022-12-19T16:29:03;247.73;;;128.05;;
42866;SDS011;39461;40.948;73.006;2022-12-19T16:31:41;259.42;;;133.52;;
42866;SDS011;39461;40.948;73.006;2022-12-19T16:34:17;274.98;;;141.18;;
42866;SDS011;39461;40.948;73.006;2022-12-19T16:36:53;256.45;;;130.55;;
42866;SDS011;39461;40.948;73.006;2022-12-19T16:39:28;251.48;;;127.05;;
42866;SDS011;39461;40.948;73.006;2022-12-19T16:41:57;242.77;;;126.93;;
42866;SDS011;39461;40.948;73.006;2022-12-19T16:44:31;247.82;;;122.35;;
42866;SDS011;39461;40.948;73.006;2022-12-19T16:47:12;251.75;;;123.55;;
42866;SDS011;39461;40.948;73.006;2022-12-19T16:49:45;281.52;;;136.27;;
42866;SDS011;39461;40.948;73.006;2022-12-19T16:52:24;280.85;;;136.43;;
42866;SDS011;39461;40.948;73.006;2022-12-19T16:55:04;264.65;;;134.43;;
42866;SDS011;39461;40.948;73.006;2022-12-19T16:57:45;260.27;;;131.75;;
42866;SDS011;39461;40.948;73.006;2022-12-19T17:00:19;230.05;;;117.43;;
42866;SDS011;39461;40.948;73.006;2022-12-19T17:02:53;203.95;;;103.57;;
42866;SDS011;39461;40.948;73.006;2022-12-19T17:05:32;193.48;;;96.30;;
42866;SDS011;39461;40.948;73.006;2022-12-19T17:08:10;182.05;;;92.88;;
42866;SDS011;39461;40.948;73.006;2022-12-19T17:10:43;181.57;;;91.88;;
42866;SDS011;39461;40.948;73.006;2022-12-19T17:13:17;177.13;;;89.55;;
42866;SDS011;39461;40.948;73.006;2022-12-19T17:15:51;172.43;;;83.88;;
42866;SDS011;39461;40.948;73.006;2022-12-19T17:18:32;192.02;;;91.65;;
42866;SDS011;39461;40.948;73.006;2022-12-19T17:21:06;209.35;;;99.82;;
42866;SDS011;39461;40.948;73.006;2022-12-19T17:23:39;232.77;;;107.65;;
42866;SDS011;39461;40.948;73.006;2022-12-19T17:26:14;222.45;;;107.35;;
42866;SDS011;39461;40.948;73.006;2022-12-19T17:28:49;188.98;;;97.13;;
42866;SDS011;39461;40.948;73.006;2022-12-19T17:31:23;160.00;;;78.28;;
42866;SDS011;39461;40.948;73.006;2022-12-19T17:34:01;146.48;;;69.72;;
42866;SDS011;39461;40.948;73.006;2022-12-19T17:36:34;142.43;;;70.97;;
42866;SDS011;39461;40.948;73.006;2022-12-19T17:39:18;164.80;;;80.97;;
42866;SDS011;39461;40.948;73.006;2022-12-19T17:42:15;174.10;;;81.53;;
42866;SDS011;39461;40.948;73.006;2022-12-19T17:44:50;162.57;;;74.80;;
42866;SDS011;39461;40.948;73.006;2022-12-19T17:47:23;129.27;;;66.97;;
42866;SDS011;39461;40.948;73.006;2022-12-19T17:49:57;118.85;;;62.40;;
42866;SDS011;39461;40.948;73.006;2022-12-19T17:52:30;126.85;;;63.25;;
42866;SDS011;39461;40.948;73.006;2022-12-19T17:55:14;129.60;;;67.47;;
42866;SDS011;39461;40.948;73.006;2022-12-19T17:57:50;135.48;;;68.07;;
42866;SDS011;39461;40.948;73.006;2022-12-19T18:00:26;127.68;;;62.38;;
42866;SDS011;39461;40.948;73.006;2022-12-19T18:05:52;139.38;;;67.07;;
42866;SDS011;39461;40.948;73.006;2022-12-19T18:08:26;150.00;;;71.50;;
42866;SDS011;39461;40.948;73.006;2022-12-19T18:11:01;143.93;;;68.10;;
42866;SDS011;39461;40.948;73.006;2022-12-19T18:13:35;133.57;;;64.32;;
42866;SDS011;39461;40.948;73.006;2022-12-19T18:16:09;121.57;;;62.22;;
42866;SDS011;39461;40.948;73.006;2022-12-19T18:18:43;113.82;;;56.92;;
42866;SDS011;39461;40.948;73.006;2022-12-19T18:21:20;114.82;;;53.78;;
42866;SDS011;39461;40.948;73.006;2022-12-19T18:23:56;108.43;;;53.10;;
42866;SDS011;39461;40.948;73.006;2022-12-19T18:26:29;108.97;;;48.17;;
42866;SDS011;39461;40.948;73.006;2022-12-19T18:29:05;93.78;;;46.83;;
42866;SDS011;39461;40.948;73.006;2022-12-19T18:31:38;96.05;;;45.85;;
42866;SDS011;39461;40.948;73.006;2022-12-19T18:34:17;83.45;;;40.83;;
42866;SDS011;39461;40.948;73.006;2022-12-19T18:36:51;85.13;;;43.28;;
42866;SDS011;39461;40.948;73.006;2022-12-19T18:39:31;86.82;;;44.83;;
42866;SDS011;39461;40.948;73.006;2022-12-19T18:42:18;86.72;;;44.00;;
42866;SDS011;39461;40.948;73.006;2022-12-19T18:47:54;82.35;;;39.28;;
42866;SDS011;39461;40.948;73.006;2022-12-19T18:50:30;81.55;;;38.10;;
42866;SDS011;39461;40.948;73.006;2022-12-19T18:53:09;73.15;;;33.47;;
42866;SDS011;39461;40.948;73.006;2022-12-19T18:55:44;65.03;;;31.10;;
42866;SDS011;39461;40.948;73.006;2022-12-19T18:58:13;64.47;;;30.40;;
42866;SDS011;39461;40.948;73.006;2022-12-19T19:00:43;58.60;;;28.75;;
42866;SDS011;39461;40.948;73.006;2022-12-19T19:06:18;74.97;;;36.08;;
42866;SDS011;39461;40.948;73.006;2022-12-19T19:08:55;76.38;;;36.22;;
42866;SDS011;39461;40.948;73.006;2022-12-19T19:11:31;88.07;;;41.63;;
42866;SDS011;39461;40.948;73.006;2022-12-19T19:14:04;80.53;;;38.92;;
42866;SDS011;39461;40.948;73.006;2022-12-19T19:16:43;90.88;;;40.40;;
42866;SDS011;39461;40.948;73.006;2022-12-19T19:19:21;81.65;;;40.22;;